Houston, Texas
Traffic Map
Current Weather Conditions
Houston, Texas
Few Clouds
Few Clouds
84°
Feels Like: 92°
Wind Chill: 84° Ceiling: Unl
Heat Index: 92° Visibility: 10mi
Dew Point: 75° Wind: 8mph
Humidity: 74% Direction: 110° (ESE)
Pressure: 29.92in Gusts: 0mph
Raw Report DataKIAH 241453Z 11007KT 10SM FEW020 FEW250 29/24 A2992 RMK AO2 SLP129 T02890239 53011
Traffic Incident Summary
Active as of:
Severity:
Category:
InformationThere was an issue retrieving the traffic information for this location. Please try a different location or try again shortly.
Advertisements